Time;durP1;ratioP1;P1;durP2;ratioP2;P2;SDS_P1;SDS_P2;PMS_P1;PMS_P2;Temp;Humidity;BMP_temperature;BMP_pressure;BME280_temperature;BME280_humidity;BME280_pressure;Samples;Min_cycle;Max_cycle;Signal;HPM_P1;HPM_P2
2022/05/07 00:01:42;;;;;;;9.82;8.82;;;;;;;15.29;70.10;99575.03;5107258;28;20093;-72
2022/05/07 00:04:14;;;;;;;12.88;10.68;;;;;;;15.28;70.18;99567.16;5107323;28;20050;-73
2022/05/07 00:06:47;;;;;;;11.60;10.48;;;;;;;15.33;70.21;99565.00;5107385;28;20062;-73
2022/05/07 00:09:19;;;;;;;12.35;10.00;;;;;;;14.29;70.36;99422.84;5106170;28;20040;-73
2022/05/07 00:11:53;;;;;;;10.27;9.02;;;;;;;15.35;69.77;99561.25;5106334;28;20177;-73
2022/05/07 00:14:25;;;;;;;11.68;10.18;;;;;;;15.38;69.82;99562.84;5107024;28;20085;-73
2022/05/07 00:19:48;;;;;;;9.25;8.35;;;;;;;15.40;69.90;99566.28;5106837;28;20044;-73
2022/05/07 00:22:21;;;;;;;10.13;9.13;;;;;;;15.35;70.28;99566.59;5106862;28;20043;-73
2022/05/07 00:24:53;;;;;;;7.85;7.05;;;;;;;15.28;70.20;99570.66;5106236;28;20040;-73
2022/05/07 00:27:27;;;;;;;9.30;8.40;;;;;;;15.32;70.22;99565.97;5106893;28;20040;-73
2022/05/07 00:29:59;;;;;;;11.05;8.25;;;;;;;15.35;69.83;99565.75;5106615;28;20048;-73
2022/05/07 00:32:32;;;;;;;9.55;8.55;;;;;;;15.33;70.24;99565.00;5106826;28;20040;-73
2022/05/07 00:35:05;;;;;;;8.90;8.07;;;;;;;15.31;70.43;99569.59;5106549;28;20040;-73
2022/05/07 00:37:37;;;;;;;8.65;7.75;;;;;;;14.87;70.68;99504.19;5106253;28;20043;-73
2022/05/07 00:40:10;;;;;;;9.55;7.75;;;;;;;15.22;70.57;99572.91;5105722;28;20047;-72
2022/05/07 00:42:43;;;;;;;8.35;7.55;;;;;;;15.24;71.11;99581.66;5106622;28;20120;-72
2022/05/07 00:45:15;;;;;;;9.05;8.13;;;;;;;15.26;70.80;99575.25;5105970;28;20040;-72
2022/05/07 00:47:48;;;;;;;7.95;7.15;;;;;;;15.26;70.40;99569.91;5106738;28;20040;-73
2022/05/07 00:53:10;;;;;;;7.80;7.00;;;;;;;15.26;70.95;99567.25;5106279;28;20044;-72
2022/05/07 00:55:45;;;;;;;7.47;6.78;;;;;;;15.23;70.70;99570.13;5106518;28;20062;-73
2022/05/07 00:58:18;;;;;;;6.65;5.88;;;;;;;15.25;70.69;99568.22;5106463;28;20035;-72
2022/05/07 01:00:52;;;;;;;7.10;6.40;;;;;;;14.74;70.81;99476.66;5106550;28;20048;-73
2022/05/07 01:03:25;;;;;;;7.22;6.53;;;;;;;15.24;70.75;99554.97;5105725;28;20039;-72
2022/05/07 01:05:57;;;;;;;7.32;6.47;;;;;;;15.25;70.53;99559.34;5106323;28;20052;-72
2022/05/07 01:08:30;;;;;;;6.93;6.13;;;;;;;15.21;70.49;99555.19;5106421;28;20044;-72
2022/05/07 01:11:03;;;;;;;6.65;5.72;;;;;;;15.17;70.82;99556.38;5105289;28;20040;-73
2022/05/07 01:13:38;;;;;;;6.00;5.40;;;;;;;15.12;71.20;99553.16;5106205;28;20040;-73
2022/05/07 01:16:12;;;;;;;6.43;5.78;;;;;;;14.25;70.35;99417.84;5105879;28;20085;-73
2022/05/07 01:18:44;;;;;;;6.95;6.15;;;;;;;15.21;70.26;99560.53;5105856;28;20047;-73
2022/05/07 01:21:18;;;;;;;7.70;6.93;;;;;;;14.70;69.86;99494.72;5106074;28;20048;-73
2022/05/07 01:23:50;;;;;;;9.35;7.45;;;;;;;15.05;69.67;99579.44;5105789;28;20097;-73
2022/05/07 01:26:24;;;;;;;7.90;6.85;;;;;;;14.94;69.78;99593.53;5105255;28;20082;-73
2022/05/07 01:29:01;;;;;;;7.78;6.97;;;;;;;14.88;70.26;99595.78;5105968;28;20040;-72
2022/05/07 01:31:33;;;;;;;7.03;6.32;;;;;;;14.90;69.83;99600.03;5105687;28;20296;-74
2022/05/07 01:34:06;;;;;;;6.25;5.45;;;;;;;14.64;69.99;99560.97;5104916;28;20040;-72
2022/05/07 01:36:40;;;;;;;7.00;6.35;;;;;;;14.83;70.35;99612.09;5105195;28;20039;-73
2022/05/07 01:39:12;;;;;;;5.35;4.57;;;;;;;14.80;70.09;99606.13;5104682;28;20051;-74
2022/05/07 01:41:44;;;;;;;7.00;6.25;;;;;;;14.45;70.19;99548.81;5105548;28;20203;-73
2022/05/07 01:44:16;;;;;;;7.10;6.20;;;;;;;14.81;70.02;99602.50;5105425;28;20062;-73
2022/05/07 01:49:38;;;;;;;11.00;8.10;;;;;;;14.45;70.99;99577.31;5105368;28;20081;-73
2022/05/07 01:52:12;;;;;;;7.13;6.43;;;;;;;14.71;70.64;99626.28;5109053;28;20040;-72
2022/05/07 01:54:41;;;;;;;7.45;5.78;;;;;;;14.71;70.82;99628.94;5112467;28;20046;-72
2022/05/07 01:57:11;;;;;;;8.23;5.30;;;;;;;14.74;70.30;99615.41;5112176;28;20066;-72
2022/05/07 01:59:41;;;;;;;6.03;5.13;;;;;;;14.52;70.41;99586.59;5112178;28;20040;-72
2022/05/07 02:02:12;;;;;;;7.60;5.65;;;;;;;14.70;70.57;99611.22;5112404;28;20036;-72
2022/05/07 02:04:42;;;;;;;6.13;5.38;;;;;;;14.66;70.92;99601.72;5112380;28;20032;-72
2022/05/07 02:07:14;;;;;;;6.38;5.68;;;;;;;14.70;71.38;99581.88;5111309;28;20196;-72
2022/05/07 02:09:43;;;;;;;8.27;5.90;;;;;;;14.74;71.32;99572.72;5112286;28;20070;-72
2022/05/07 02:12:13;;;;;;;7.07;5.82;;;;;;;14.79;70.96;99551.06;5111959;28;20040;-72
2022/05/07 02:14:43;;;;;;;8.75;6.72;;;;;;;14.10;71.18;99417.94;5112010;28;20099;-72
2022/05/07 02:17:13;;;;;;;8.07;7.25;;;;;;;14.88;71.36;99534.41;5112333;28;20044;-72
2022/05/07 02:19:44;;;;;;;7.97;7.18;;;;;;;14.89;71.16;99533.44;5112012;28;20367;-73
2022/05/07 02:22:15;;;;;;;9.52;7.72;;;;;;;14.74;71.24;99504.19;5111468;28;20104;-72
2022/05/07 02:24:46;;;;;;;9.57;8.68;;;;;;;14.58;71.20;99476.84;5111944;28;20044;-73
2022/05/07 02:27:15;;;;;;;10.05;7.80;;;;;;;14.87;71.55;99532.69;5111171;28;20099;-73
2022/05/07 02:29:45;;;;;;;8.65;7.75;;;;;;;14.20;71.34;99447.47;5111404;28;20040;-73
2022/05/07 02:32:15;;;;;;;8.98;8.05;;;;;;;14.83;71.46;99528.53;5111886;28;20036;-73
2022/05/07 02:34:46;;;;;;;8.85;7.93;;;;;;;14.53;71.41;99476.28;5111890;28;20315;-72
2022/05/07 02:37:17;;;;;;;9.57;7.65;;;;;;;14.88;71.06;99532.59;5111892;28;20081;-72
2022/05/07 02:39:47;;;;;;;8.93;8.02;;;;;;;13.89;70.96;99365.25;5111766;28;20269;-72
2022/05/07 02:42:33;;;;;;;10.45;8.77;;;;;;;14.84;71.39;99517.75;5112113;28;20047;-72
2022/05/07 02:45:07;;;;;;;9.57;8.68;;;;;;;14.78;71.71;99536.00;5111046;28;20044;-73
2022/05/07 02:47:42;;;;;;;10.40;9.00;;;;;;;14.51;71.94;99478.22;5111921;28;20048;-72
2022/05/07 02:50:14;;;;;;;10.95;9.85;;;;;;;14.47;71.22;99465.19;5111048;28;20303;-73
2022/05/07 02:52:48;;;;;;;11.73;10.50;;;;;;;14.80;71.17;99520.75;5111194;28;20044;-72
2022/05/07 02:55:20;;;;;;;11.63;10.43;;;;;;;14.80;71.36;99528.75;5112042;28;20288;-73
2022/05/07 02:57:52;;;;;;;13.82;11.77;;;;;;;14.77;71.35;99529.81;5111981;28;20047;-73
2022/05/07 03:00:24;;;;;;;12.15;10.90;;;;;;;14.77;71.40;99539.63;5110880;28;20257;-73
2022/05/07 03:02:57;;;;;;;11.93;10.73;;;;;;;13.69;71.71;99372.81;5110309;28;20086;-73
2022/05/07 03:05:29;;;;;;;12.30;11.02;;;;;;;14.72;71.36;99550.63;5108580;28;20346;-72
2022/05/07 03:08:02;;;;;;;13.50;12.20;;;;;;;14.70;71.57;99541.88;5108335;28;20048;-73
2022/05/07 03:10:35;;;;;;;11.88;10.68;;;;;;;14.40;72.02;99494.94;5108346;28;20040;-72
2022/05/07 03:13:07;;;;;;;13.63;12.23;;;;;;;14.33;71.71;99491.00;5107736;28;20266;-72
2022/05/07 03:15:39;;;;;;;12.23;11.02;;;;;;;14.72;71.04;99551.47;5108270;28;20042;-72
2022/05/07 03:18:12;;;;;;;12.63;11.32;;;;;;;14.45;71.69;99508.81;5108230;28;20040;-73
2022/05/07 03:20:44;;;;;;;11.82;10.70;;;;;;;14.06;71.84;99463.56;5108347;28;20050;-72
2022/05/07 03:23:18;;;;;;;13.02;11.70;;;;;;;14.64;72.03;99540.47;5108111;28;20039;-74
2022/05/07 03:25:50;;;;;;;15.73;11.80;;;;;;;14.62;72.21;99558.41;5108692;28;20060;-72
2022/05/07 03:28:22;;;;;;;14.15;12.75;;;;;;;14.56;72.59;99558.75;5107987;28;20039;-72
2022/05/07 03:30:54;;;;;;;13.45;11.95;;;;;;;14.48;72.68;99566.44;5108090;28;20078;-72
2022/05/07 03:33:27;;;;;;;12.98;11.68;;;;;;;14.50;72.74;99572.50;5108066;28;20044;-73
2022/05/07 03:35:59;;;;;;;15.25;12.35;;;;;;;14.23;72.30;99529.91;5107815;28;20058;-73
2022/05/07 03:38:33;;;;;;;12.93;11.60;;;;;;;13.51;72.44;99419.31;5106851;28;20047;-72
2022/05/07 03:41:06;;;;;;;12.85;11.60;;;;;;;14.51;72.72;99578.69;5107824;28;20300;-73
2022/05/07 03:43:40;;;;;;;15.00;11.73;;;;;;;14.52;72.39;99586.59;5107730;28;20318;-72
2022/05/07 03:46:12;;;;;;;13.47;12.10;;;;;;;14.49;72.80;99583.28;5107170;28;20040;-73
2022/05/07 03:48:44;;;;;;;14.25;12.07;;;;;;;13.70;72.69;99443.75;5107045;28;20040;-73
2022/05/07 03:51:16;;;;;;;12.75;11.50;;;;;;;14.53;72.84;99574.97;5107441;28;20040;-72
2022/05/07 03:53:49;;;;;;;13.63;12.27;;;;;;;14.32;72.41;99528.44;5106711;28;20098;-73
2022/05/07 03:56:21;;;;;;;13.05;11.40;;;;;;;14.63;72.15;99561.94;5107566;28;20043;-73
2022/05/07 03:58:53;;;;;;;14.88;12.98;;;;;;;14.64;72.54;99566.31;5106885;28;20044;-73
2022/05/07 04:01:26;;;;;;;13.50;12.15;;;;;;;14.67;72.16;99572.28;5107350;28;20353;-73
2022/05/07 04:03:58;;;;;;;14.88;13.43;;;;;;;14.68;71.77;99563.31;5107617;28;20040;-73
2022/05/07 04:06:30;;;;;;;14.52;13.02;;;;;;;12.69;72.13;99279.22;5107473;28;20032;-73
2022/05/07 04:09:04;;;;;;;15.60;14.00;;;;;;;14.67;71.94;99566.09;5106393;28;20059;-73
2022/05/07 04:11:36;;;;;;;18.50;15.10;;;;;;;14.64;72.14;99572.50;5106622;28;20040;-73
2022/05/07 04:14:08;;;;;;;17.40;14.35;;;;;;;14.65;72.04;99576.00;5107001;28;20044;-73
2022/05/07 04:16:40;;;;;;;18.55;16.60;;;;;;;14.33;72.05;99528.31;5106582;28;20044;-73
2022/05/07 04:19:13;;;;;;;19.55;16.42;;;;;;;14.57;72.35;99586.28;5106410;28;20097;-73
2022/05/07 04:21:45;;;;;;;17.33;15.52;;;;;;;14.52;72.42;99585.75;5106510;28;20044;-73
2022/05/07 04:24:19;;;;;;;18.63;16.63;;;;;;;12.77;72.53;99297.31;5107280;28;20085;-73
2022/05/07 04:26:51;;;;;;;19.20;16.80;;;;;;;14.59;72.29;99584.41;5106884;28;20085;-73
2022/05/07 04:29:23;;;;;;;18.13;16.33;;;;;;;14.64;72.19;99588.50;5106873;28;20062;-73
2022/05/07 04:31:55;;;;;;;20.42;18.23;;;;;;;14.62;72.36;99581.56;5106950;28;20295;-73
2022/05/07 04:34:29;;;;;;;20.13;16.83;;;;;;;14.61;72.29;99580.69;5106734;28;20288;-73
2022/05/07 04:37:01;;;;;;;20.20;17.40;;;;;;;14.65;72.34;99579.53;5106992;28;20280;-73
2022/05/07 04:39:35;;;;;;;20.30;17.77;;;;;;;14.48;72.00;99539.75;5106948;28;20239;-73
2022/05/07 04:42:08;;;;;;;21.77;18.98;;;;;;;14.68;72.44;99573.13;5106096;28;20097;-73
2022/05/07 04:44:40;;;;;;;23.33;20.80;;;;;;;14.67;71.95;99574.94;5106526;28;20066;-73
2022/05/07 04:47:12;;;;;;;21.83;19.55;;;;;;;14.69;71.96;99575.69;5106526;28;20048;-73
2022/05/07 04:49:44;;;;;;;23.45;20.92;;;;;;;14.43;71.92;99537.41;5106747;28;20036;-73
2022/05/07 04:52:17;;;;;;;23.63;20.52;;;;;;;14.71;72.11;99575.59;5105559;28;20181;-73
2022/05/07 04:54:50;;;;;;;22.27;19.65;;;;;;;14.53;72.20;99547.44;5106584;28;20051;-73
2022/05/07 04:57:23;;;;;;;23.48;20.98;;;;;;;10.32;71.49;98836.06;5105754;28;20227;-73
2022/05/07 04:59:55;;;;;;;23.00;20.55;;;;;;;14.76;72.04;99578.78;5105752;28;20081;-73
2022/05/07 05:02:25;;;;;;;25.65;22.40;;;;;;;14.47;71.90;99540.72;5106552;28;20347;-73
2022/05/07 05:04:55;;;;;;;25.60;21.35;;;;;;;14.80;71.49;99582.09;5105696;28;20039;-73
2022/05/07 05:07:26;;;;;;;28.73;22.83;;;;;;;14.49;71.73;99537.94;5106474;28;20082;-73
2022/05/07 05:09:57;;;;;;;24.45;21.67;;;;;;;14.72;71.79;99587.97;5106465;28;20044;-73
2022/05/07 05:12:26;;;;;;;25.58;21.25;;;;;;;14.69;71.86;99593.50;5105305;28;20260;-73
2022/05/07 05:15:03;;;;;;;24.67;22.00;;;;;;;14.39;71.74;99537.72;5105965;28;20051;-73
2022/05/07 05:17:33;;;;;;;29.13;22.88;;;;;;;13.83;71.52;99441.13;5106288;28;20036;-73
2022/05/07 05:20:04;;;;;;;24.48;21.08;;;;;;;14.81;71.57;99591.81;5106272;28;20036;-73
2022/05/07 05:22:32;;;;;;;24.85;22.13;;;;;;;14.65;71.19;99573.34;5105944;28;20326;-73
2022/05/07 05:25:06;;;;;;;24.42;21.80;;;;;;;14.76;71.35;99608.16;5105501;28;20064;-73
2022/05/07 05:27:38;;;;;;;21.75;19.45;;;;;;;14.43;71.29;99547.22;5105262;28;20039;-73
2022/05/07 05:30:11;;;;;;;24.08;21.50;;;;;;;14.83;71.27;99597.91;5105819;28;20040;-73
2022/05/07 05:32:44;;;;;;;25.33;21.15;;;;;;;14.31;71.21;99506.25;5105899;28;20093;-73
2022/05/07 05:35:16;;;;;;;23.17;20.70;;;;;;;14.82;71.45;99583.72;5105727;28;20044;-73
2022/05/07 05:37:48;;;;;;;24.08;20.25;;;;;;;14.80;71.60;99588.31;5105415;28;20064;-73
2022/05/07 05:40:22;;;;;;;24.00;20.92;;;;;;;14.83;71.68;99597.91;5105997;28;20040;-73
2022/05/07 05:42:54;;;;;;;20.65;18.27;;;;;;;14.83;71.32;99600.56;5104849;28;20209;-73
2022/05/07 05:45:27;;;;;;;25.48;21.05;;;;;;;14.77;71.78;99615.19;5105051;28;20226;-73
2022/05/07 05:48:01;;;;;;;23.80;19.48;;;;;;;13.21;71.16;99352.94;5105738;28;20044;-73
2022/05/07 05:50:33;;;;;;;25.63;20.00;;;;;;;14.69;72.14;99617.53;5105598;28;20085;-73
2022/05/07 05:53:06;;;;;;;24.52;21.45;;;;;;;13.09;71.83;99356.41;5105461;28;20044;-73
2022/05/07 05:55:40;;;;;;;21.52;19.23;;;;;;;14.75;71.82;99619.78;5105400;28;20040;-73
2022/05/07 05:58:12;;;;;;;24.30;20.88;;;;;;;14.82;71.44;99620.22;5105509;28;20047;-73
2022/05/07 06:00:44;;;;;;;21.90;19.02;;;;;;;14.81;71.42;99637.19;5104897;28;20105;-73
2022/05/07 06:03:17;;;;;;;28.65;25.58;;;;;;;14.57;71.49;99591.63;5105465;28;20242;-73
2022/05/07 06:05:49;;;;;;;28.77;25.67;;;;;;;14.82;71.46;99637.06;5105411;28;20137;-73
2022/05/07 06:08:21;;;;;;;28.65;23.98;;;;;;;14.85;71.54;99636.00;5105626;28;20040;-73
2022/05/07 06:10:57;;;;;;;26.20;22.17;;;;;;;14.81;71.58;99634.50;5105548;28;20036;-73
2022/05/07 06:13:32;;;;;;;24.83;20.23;;;;;;;14.83;71.31;99628.13;5104922;28;20036;-73
2022/05/07 06:16:05;;;;;;;21.50;18.98;;;;;;;14.86;71.50;99635.91;5105665;28;20085;-73
2022/05/07 06:18:37;;;;;;;21.30;18.67;;;;;;;14.87;71.33;99637.63;5105246;28;20040;-73
2022/05/07 06:21:09;;;;;;;20.48;17.95;;;;;;;14.85;71.49;99642.19;5105262;28;20296;-73
2022/05/07 06:23:42;;;;;;;22.25;18.98;;;;;;;14.83;71.78;99640.59;5105145;28;20036;-73
2022/05/07 06:29:05;;;;;;;22.10;19.80;;;;;;;14.81;71.72;99643.38;5104571;28;20093;-73
2022/05/07 06:31:37;;;;;;;21.98;19.00;;;;;;;12.93;71.64;99340.59;5105226;28;20048;-73
2022/05/07 06:34:10;;;;;;;21.35;19.05;;;;;;;13.28;71.82;99385.31;5105363;28;20047;-73
2022/05/07 06:36:42;;;;;;;23.00;18.92;;;;;;;14.81;71.55;99632.69;5105327;28;20258;-73
2022/05/07 06:39:15;;;;;;;22.58;18.63;;;;;;;14.88;71.71;99633.13;5105994;28;20055;-73
2022/05/07 06:41:50;;;;;;;25.58;19.70;;;;;;;14.62;71.82;99574.41;5108863;28;20208;-74
2022/05/07 06:44:22;;;;;;;22.98;19.02;;;;;;;13.61;71.29;99422.22;5108906;28;20046;-73
2022/05/07 06:46:56;;;;;;;21.05;18.88;;;;;;;14.99;71.24;99626.09;5107967;28;20314;-73
2022/05/07 06:49:28;;;;;;;22.25;18.90;;;;;;;15.02;71.26;99622.38;5108759;28;20048;-72
2022/05/07 06:52:00;;;;;;;19.75;17.73;;;;;;;15.07;70.77;99622.91;5107853;28;20059;-73
2022/05/07 06:54:33;;;;;;;25.25;20.77;;;;;;;15.04;71.05;99607.94;5108624;28;20043;-72
2022/05/07 06:57:08;;;;;;;24.58;21.90;;;;;;;14.62;70.95;99538.88;5108860;28;20182;-73
2022/05/07 06:59:43;;;;;;;24.08;20.65;;;;;;;14.55;70.89;99525.03;5107971;28;20059;-73
2022/05/07 07:02:15;;;;;;;21.23;18.92;;;;;;;14.80;70.96;99555.44;5108706;28;20042;-72
2022/05/07 07:04:47;;;;;;;23.23;19.73;;;;;;;15.13;70.82;99610.94;5108437;28;20040;-73
2022/05/07 07:07:25;;;;;;;21.60;18.45;;;;;;;15.07;71.28;99613.06;5108549;28;20040;-72
2022/05/07 07:09:57;;;;;;;20.95;18.50;;;;;;;15.09;71.35;99612.97;5108462;28;20078;-73
2022/05/07 07:12:30;;;;;;;20.13;18.00;;;;;;;15.07;71.34;99607.75;5108450;28;20043;-73
2022/05/07 07:15:04;;;;;;;19.90;17.48;;;;;;;15.10;71.37;99609.34;5108426;28;20048;-73
2022/05/07 07:17:37;;;;;;;22.15;17.67;;;;;;;15.13;71.05;99624.28;5107059;28;20051;-73
2022/05/07 07:20:09;;;;;;;22.08;17.83;;;;;;;15.04;70.92;99605.28;5107026;28;20044;-73
2022/05/07 07:22:37;;;;;;;25.45;19.27;;;;;;;15.06;71.03;99603.34;5091106;28;20040;-73
2022/05/07 07:25:08;;;;;;;21.20;18.40;;;;;;;15.12;71.30;99606.56;5108259;28;20081;-73
2022/05/07 07:27:39;;;;;;;21.70;17.35;;;;;;;15.12;70.97;99606.56;5107449;28;20032;-73
2022/05/07 07:30:09;;;;;;;19.38;16.60;;;;;;;14.83;71.05;99556.06;5108071;28;20043;-73
2022/05/07 07:32:37;;;;;;;17.13;15.32;;;;;;;15.10;71.25;99617.34;5107364;28;20084;-73
2022/05/07 07:35:08;;;;;;;20.75;17.02;;;;;;;15.11;71.30;99613.72;5107339;28;20024;-73
2022/05/07 07:37:38;;;;;;;18.60;16.23;;;;;;;15.07;71.04;99612.22;5107838;28;20111;-73
2022/05/07 07:40:09;;;;;;;19.77;16.67;;;;;;;15.10;71.14;99609.34;5107735;28;20074;-73
2022/05/07 07:42:41;;;;;;;19.20;16.80;;;;;;;14.82;70.86;99572.19;5090366;28;20063;-73
2022/05/07 07:48:05;;;;;;;20.45;18.25;;;;;;;15.21;70.65;99614.78;5107767;28;20081;-74
2022/05/07 07:50:39;;;;;;;18.88;16.33;;;;;;;15.00;70.82;99566.41;5106856;28;20088;-74
2022/05/07 07:53:12;;;;;;;16.42;14.75;;;;;;;15.36;70.13;99612.84;5107337;28;20250;-74
2022/05/07 07:55:44;;;;;;;14.98;13.32;;;;;;;15.40;70.27;99611.66;5107490;28;20043;-74
2022/05/07 07:58:19;;;;;;;16.25;14.52;;;;;;;15.47;69.97;99607.59;5107249;28;20050;-74
2022/05/07 08:00:51;;;;;;;15.68;13.82;;;;;;;15.52;70.11;99613.47;5107288;28;20036;-74
2022/05/07 08:03:23;;;;;;;16.75;14.95;;;;;;;15.57;69.73;99608.66;5107277;28;20219;-74
2022/05/07 08:05:57;;;;;;;17.45;15.18;;;;;;;15.63;69.51;99610.88;5106601;28;20085;-74
2022/05/07 08:14:13;;;;;;;16.05;14.35;;;;;;;15.71;69.27;99613.03;5107029;28;20066;-74
2022/05/07 08:16:45;;;;;;;15.50;13.85;;;;;;;15.28;69.19;99527.09;5107139;28;20238;-74
2022/05/07 08:19:18;;;;;;;15.27;13.55;;;;;;;15.78;68.65;99614.28;5106244;28;20296;-74
2022/05/07 08:21:50;;;;;;;15.43;13.63;;;;;;;15.82;69.07;99613.09;5107211;28;20047;-74
2022/05/07 08:24:23;;;;;;;14.05;12.48;;;;;;;15.88;68.37;99614.47;5106922;28;20040;-74
2022/05/07 08:26:55;;;;;;;14.60;13.10;;;;;;;15.88;68.62;99619.81;5105949;28;20096;-73
2022/05/07 08:29:29;;;;;;;14.40;12.13;;;;;;;15.94;68.75;99609.53;5106748;28;20040;-74
2022/05/07 08:32:01;;;;;;;13.63;12.20;;;;;;;15.98;68.64;99623.53;5106590;28;20044;-74
2022/05/07 08:34:34;;;;;;;14.20;12.70;;;;;;;15.99;68.31;99623.41;5106587;28;20040;-74
2022/05/07 08:37:06;;;;;;;18.55;13.82;;;;;;;16.03;67.90;99622.22;5106621;28;20251;-74
2022/05/07 08:39:38;;;;;;;15.63;13.77;;;;;;;16.06;67.72;99623.81;5106320;28;20052;-74
2022/05/07 08:42:11;;;;;;;13.85;12.35;;;;;;;16.03;67.50;99619.56;5105682;28;20044;-74
2022/05/07 08:44:45;;;;;;;14.07;12.15;;;;;;;16.06;67.10;99626.50;5106338;28;20145;-74
2022/05/07 08:47:18;;;;;;;15.23;13.60;;;;;;;16.15;67.53;99623.16;5106083;28;20044;-74
2022/05/07 08:49:51;;;;;;;14.53;13.07;;;;;;;16.23;67.46;99634.13;5106407;28;20043;-74
2022/05/07 08:52:23;;;;;;;14.90;13.30;;;;;;;16.27;66.43;99632.94;5106244;28;20247;-74
2022/05/07 08:54:58;;;;;;;14.52;13.02;;;;;;;16.34;66.31;99631.50;5106557;28;20085;-74
2022/05/07 08:57:30;;;;;;;14.05;12.40;;;;;;;16.44;66.71;99654.91;5106193;28;20036;-74
2022/05/07 09:00:06;;;;;;;15.73;13.20;;;;;;;16.47;66.52;99633.28;5106185;28;20082;-74
2022/05/07 09:02:41;;;;;;;14.77;13.23;;;;;;;16.54;66.62;99635.38;5105410;28;20160;-74
2022/05/07 09:05:15;;;;;;;15.23;13.10;;;;;;;16.63;65.87;99632.00;5106373;28;20054;-74
2022/05/07 09:07:52;;;;;;;19.90;15.55;;;;;;;16.57;64.48;99642.31;5105427;28;20063;-74
2022/05/07 09:10:27;;;;;;;14.63;12.48;;;;;;;16.56;65.49;99640.59;5105170;28;20048;-74
2022/05/07 09:13:10;;;;;;;16.98;15.10;;;;;;;16.58;64.53;99641.34;5106239;28;20035;-74
2022/05/07 09:15:55;;;;;;;17.13;14.85;;;;;;;16.66;64.65;99633.63;5105969;28;20044;-74
2022/05/07 09:18:28;;;;;;;15.52;13.95;;;;;;;16.72;65.42;99640.34;5105299;28;20044;-74
2022/05/07 09:24:06;;;;;;;17.25;15.02;;;;;;;16.92;64.50;99642.34;5124127;27;20807;-73
2022/05/07 09:26:43;;;;;;;15.35;13.40;;;;;;;15.79;65.04;99447.66;5123192;28;20046;-73
2022/05/07 09:29:16;;;;;;;12.95;11.65;;;;;;;17.02;64.94;99639.81;5123054;28;20043;-73
2022/05/07 09:31:49;;;;;;;15.73;13.82;;;;;;;17.09;64.72;99635.69;5123068;28;20062;-72
2022/05/07 09:37:16;;;;;;;17.90;14.80;;;;;;;17.30;63.83;99634.03;5123006;28;20164;-73
2022/05/07 09:39:51;;;;;;;15.25;13.48;;;;;;;12.25;62.41;98793.19;5122172;28;20040;-73
2022/05/07 09:42:24;;;;;;;13.60;12.18;;;;;;;16.29;63.43;99459.84;5122057;28;20051;-73
2022/05/07 09:44:57;;;;;;;16.92;13.02;;;;;;;17.22;63.21;99590.94;5122780;28;20047;-72
2022/05/07 09:47:30;;;;;;;14.43;11.82;;;;;;;17.54;63.14;99628.56;5123166;28;20039;-73
2022/05/07 09:50:23;;;;;;;14.95;12.98;;;;;;;17.53;63.29;99632.22;5121929;28;20223;-73
2022/05/07 09:58:36;;;;;;;13.82;12.38;;;;;;;16.59;63.29;99502.09;5121562;28;20044;-73
2022/05/07 10:01:20;;;;;;;13.25;11.45;;;;;;;17.36;61.93;99622.84;5122716;28;20040;-74
2022/05/07 10:04:04;;;;;;;15.45;13.35;;;;;;;17.36;62.74;99624.66;5122667;28;20200;-73
2022/05/07 10:06:49;;;;;;;20.33;14.18;;;;;;;17.10;61.70;99591.88;5122473;28;20035;-74
2022/05/07 10:09:33;;;;;;;14.07;12.68;;;;;;;17.23;62.88;99624.78;5122634;28;20047;-74
2022/05/07 10:12:10;;;;;;;13.73;12.23;;;;;;;17.28;62.83;99625.28;5122364;28;20290;-74
2022/05/07 10:14:43;;;;;;;13.73;12.38;;;;;;;16.05;63.14;99418.94;5122286;28;20095;-73
2022/05/07 10:17:16;;;;;;;14.95;12.50;;;;;;;17.18;62.79;99619.75;5121674;28;20081;-74
2022/05/07 10:19:50;;;;;;;12.23;11.02;;;;;;;17.06;63.21;99626.06;5121773;28;20227;-74
2022/05/07 10:22:25;;;;;;;13.57;12.17;;;;;;;16.83;63.06;99578.81;5122276;28;20195;-74
2022/05/07 10:25:27;;;;;;;23.27;13.45;;;;;;;17.08;62.80;99613.41;5122090;28;20044;-74
2022/05/07 10:28:09;;;;;;;13.32;10.85;;;;;;;17.13;63.12;99613.06;5122376;28;20089;-73
2022/05/07 10:30:48;;;;;;;12.43;11.13;;;;;;;16.58;63.55;99513.75;5121647;28;20040;-73
2022/05/07 10:33:22;;;;;;;14.48;13.07;;;;;;;17.21;63.70;99605.31;5119098;28;20086;-73
2022/05/07 10:35:58;;;;;;;14.50;13.05;;;;;;;17.12;64.08;99582.75;5108177;28;20061;-73
2022/05/07 10:38:36;;;;;;;16.67;13.45;;;;;;;17.29;63.80;99613.59;5108535;28;20040;-73
2022/05/07 10:41:22;;;;;;;13.75;11.63;;;;;;;17.32;63.53;99618.69;5108480;28;20090;-73
2022/05/07 10:44:06;;;;;;;14.00;11.80;;;;;;;17.33;63.50;99614.19;5108145;28;20322;-74
2022/05/07 10:46:42;;;;;;;12.00;10.73;;;;;;;17.37;63.49;99611.16;5108197;28;20039;-73
2022/05/07 10:49:18;;;;;;;13.15;11.60;;;;;;;17.40;63.50;99613.59;5108478;28;20039;-73
2022/05/07 10:51:53;;;;;;;13.20;11.68;;;;;;;17.36;63.28;99608.59;5107897;28;20043;-73
2022/05/07 10:54:27;;;;;;;15.68;11.32;;;;;;;17.38;63.11;99618.22;5108036;28;20048;-73
2022/05/07 10:57:00;;;;;;;14.15;11.75;;;;;;;17.40;63.07;99610.06;5107715;28;20046;-73
2022/05/07 10:59:34;;;;;;;12.38;9.60;;;;;;;16.42;62.88;99430.31;5091065;28;20047;-73
2022/05/07 11:02:09;;;;;;;11.75;10.13;;;;;;;17.55;62.99;99622.22;5107138;28;20043;-73
2022/05/07 11:04:44;;;;;;;11.80;9.40;;;;;;;17.60;61.45;99602.13;5107743;28;20047;-73
2022/05/07 11:07:20;;;;;;;11.18;10.00;;;;;;;17.62;61.22;99600.22;5107492;28;20231;-74
2022/05/07 11:09:53;;;;;;;15.32;10.38;;;;;;;17.67;61.61;99602.53;5106911;28;20044;-73
2022/05/07 11:12:26;;;;;;;10.82;9.38;;;;;;;17.22;61.42;99521.31;5107331;28;20059;-73
2022/05/07 11:14:59;;;;;;;14.20;10.18;;;;;;;17.75;61.91;99596.53;5107220;28;20119;-73
2022/05/07 11:17:35;;;;;;;12.85;10.38;;;;;;;17.78;61.47;99594.47;5106781;28;20055;-71
2022/05/07 11:20:08;;;;;;;11.95;10.45;;;;;;;17.84;61.86;99593.97;5107453;28;20040;-70
2022/05/07 11:22:39;;;;;;;11.70;10.50;;;;;;;17.92;61.79;99615.66;5106696;28;20073;-70
2022/05/07 11:25:08;;;;;;;10.45;9.07;;;;;;;17.91;61.78;99587.13;5107154;28;20111;-69
2022/05/07 11:27:37;;;;;;;11.25;10.15;;;;;;;17.95;61.36;99582.38;5107173;28;20107;-70
2022/05/07 11:30:12;;;;;;;13.45;10.05;;;;;;;18.01;60.97;99587.22;5106413;28;20280;-69
2022/05/07 11:32:44;;;;;;;10.50;9.40;;;;;;;18.05;61.50;99588.69;5106405;28;20040;-69
2022/05/07 11:35:13;;;;;;;10.82;9.73;;;;;;;18.11;61.23;99587.31;5106838;28;20170;-70
2022/05/07 11:37:44;;;;;;;10.60;8.65;;;;;;;18.18;60.90;99592.06;5106249;28;20036;-69
2022/05/07 11:40:14;;;;;;;10.45;8.68;;;;;;;18.17;60.74;99584.13;5107206;28;20040;-69
2022/05/07 11:42:46;;;;;;;11.18;9.05;;;;;;;18.21;60.82;99575.69;5107204;28;20032;-70
2022/05/07 11:45:26;;;;;;;10.13;8.98;;;;;;;17.97;59.99;99534.81;5106311;28;20097;-69
2022/05/07 11:48:02;;;;;;;9.65;8.48;;;;;;;17.94;60.64;99525.22;5106664;28;20279;-69
2022/05/07 11:50:40;;;;;;;9.43;8.27;;;;;;;18.24;60.43;99554.00;5105739;28;20085;-70
2022/05/07 11:53:13;;;;;;;9.15;8.23;;;;;;;18.26;60.30;99556.53;5106800;28;20044;-70
2022/05/07 11:55:47;;;;;;;9.27;8.38;;;;;;;18.31;60.55;99556.16;5106325;28;20301;-69
2022/05/07 11:58:21;;;;;;;10.07;8.97;;;;;;;18.28;59.97;99550.06;5106580;28;20040;-69
2022/05/07 12:00:56;;;;;;;;;;;;;;;18.25;59.36;99558.38;5107339;28;20680;-69
2022/05/07 12:03:28;;;;;;;11.10;9.23;;;;;;;18.29;59.51;99558.97;5106571;28;19916;-69
2022/05/07 12:06:00;;;;;;;11.27;7.97;;;;;;;18.36;59.19;99552.09;5106476;28;20370;-70
2022/05/07 12:08:35;;;;;;;9.27;8.05;;;;;;;18.49;59.17;99550.09;5106449;28;20047;-70
2022/05/07 12:11:07;;;;;;;10.02;9.02;;;;;;;17.18;58.69;99341.22;5106445;28;20085;-69
2022/05/07 12:13:40;;;;;;;10.65;9.55;;;;;;;18.53;58.94;99548.88;5106230;28;20089;-69
2022/05/07 12:19:03;;;;;;;8.93;8.10;;;;;;;18.59;57.80;99540.31;5105388;28;20085;-69
2022/05/07 12:30:06;;;;;;;14.65;11.18;;;;;;;18.92;57.34;99533.88;5105714;28;20342;-70
2022/05/07 12:32:43;;;;;;;11.90;8.93;;;;;;;18.97;57.52;99533.47;5104756;28;20287;-70